FYGA4: White River At Fayetteville, AR

                                SHEF ID:       FYGA4     White River near Fayetteville, A
STATION TYPE: Stream Gauge

PRECIP STAGE RIV-FLOW WTR-TEMP DIS-OXY PH CONDUCT BAT-LOAD
in ft cfs F mg/l su umho/cm volt
Ccp-Rev Ccp-Rev Ccp-Rev Ccp-Rev Ccp-Rev Ccp-Rev Ccp-Rev Ccp-Rev
(America/Chicago)
08/14 00:00 0.01 1.29 31 79.23 5.66 7.62 254 12.81
08/14 01:00 0.00 1.29 31 78.78 5.51 7.60 254 12.73
08/14 02:00 0.00 1.28 30 78.40 5.22 7.57 254 12.73
08/14 03:00 0.00 1.27 29 78.10 5.16 7.57 253 12.73
08/14 04:00 0.00 1.26 28 77.81 5.19 7.56 253 12.65
08/14 05:00 0.00 1.25 27 77.40 4.86 7.54 253 12.65
08/14 06:00 0.00 1.25 27 77.22 4.89 7.54 252 12.65
08/14 07:00 0.00 1.24 26 77.00 4.82 7.53 252 12.57
08/14 08:00 0.01 1.24 26 76.84 4.88 7.53 252 12.65
08/14 09:00 0.00 1.22 24 77.04 5.12 7.54 251 13.44
08/14 10:00 0.00 1.22 24 77.88 5.74 7.59 250 13.44
08/14 11:00 0.00 1.21 23 80.33 7.00 7.71 249 13.53
08/14 12:00 0.00 1.21 23 83.12 7.93 7.81 248 13.44
08/14 13:00 0.00 1.20 23 85.75 8.70 7.92 248 13.44
08/14 14:00 0.00 1.19 22 87.44 9.22 8.00 247 13.21
08/14 15:00 0.00 1.18 21 88.45 9.50 8.02 247 13.29
08/14 16:00 0.00 1.18 21 89.62 9.73 8.08 246 13.05
08/14 17:00 0.00 1.17 20 89.85 10.71 8.22 245 13.13
08/14 18:00 0.00 1.16 19 89.04 9.81 8.15 247 13.05
08/14 19:00 0.00 1.16 19 88.11 8.23 7.97 247 12.89
08/14 20:00 0.00 1.15 19 86.99 7.13 7.79 248 12.89
08/14 21:00 0.00 1.14 18 86.02 6.13 7.70 249 12.81
08/14 22:00 0.00 1.14 18 85.14 5.51 7.64 249 12.81
08/14 23:00 ---- ---- ---- ---- ---- ---- ---- ----
Data processed at Thu 15Aug2024 04:10 GMT

Parsing this webpage?

Checkout our new Data API! CWMSDataAPI (CDA)

Timeseries IDs (TSIDs)

TSIDs used from left to right in the data table
FAYE.Precip-Inc.Total.1Hour.1Hour.Ccp-Rev
FAYE.Stage.Inst.1Hour.0.Ccp-Rev
FAYE.Flow.Inst.1Hour.0.Ccp-Rev
FAYE.Temp-Water.Inst.1Hour.0.Ccp-Rev
FAYE.Conc-DO.Inst.1Hour.0.Ccp-Rev
FAYE.pH.Inst.1Hour.0.Ccp-Rev
FAYE.Cond-Water.Inst.1Hour.0.Ccp-Rev
FAYE.Volt-Battery Load.Inst.1Hour.0.Ccp-Rev

                            

All information presented herein is the property of the government of the United States of America and may be revised or deleted at any time without prior notice. Dissemination of this information without the expressed written consent of the Public Affairs Office, Tulsa District U.S. Army Corps of Engineers is strictly prohibited. These data are gathered electronically and, as presented, have NOT undergone any form of quality control. These data are NOT guaranteed to be valid or correct.